Anaconda, New Mexico
Current Conditions -  °F | °C
As of 3:16 PM on Monday 20 Oct 2014 (Local Time) from KGNT Reporting Station
Scattered Clouds Scattered Clouds  
Wind Chill: 68°   Ceiling: Unl
Heat Index: 68°   Visibility: 10mi
Dew Point: 37°   Wind: 8mph
Humidity: 33%   Direction: 150°SSE
Pressure: 30.17"   Gusts: NA
Location:  35.2644°N, 107.733°W
Report Text: KGNT 202116Z AUTO 15007KT 10SM SCT060 20/03 A3017 RMK AO2
Loading
Personal Weather Stations






























Interactive Weather Map
Tropical Storm Tracking
New forecast layout! Learn more

10-Day Weather Forecast

Advertisements
Track Severe Weather on mobile